Time;durP1;ratioP1;P1;durP2;ratioP2;P2;SDS_P1;SDS_P2;PMS_P1;PMS_P2;Temp;Humidity;BMP_temperature;BMP_pressure;BME280_temperature;BME280_humidity;BME280_pressure;Samples;Min_cycle;Max_cycle;Signal;HPM_P1;HPM_P2
2023/09/05 00:02:14;;;;;;;5.10;2.30;;;;;;;19.17;94.30;100372.31;104280;1260;69611;-59
2023/09/05 00:04:44;;;;;;;2.60;2.40;;;;;;;19.16;94.47;100375.58;104240;1257;72508;-59
2023/09/05 00:07:13;;;;;;;2.80;2.40;;;;;;;19.16;94.33;100375.94;108471;1254;62959;-59
2023/09/05 00:09:41;;;;;;;2.80;2.40;;;;;;;19.16;94.73;100376.52;106416;1257;59768;-59
2023/09/05 00:12:09;;;;;;;2.90;2.60;;;;;;;19.13;95.62;100381.17;105493;1258;73025;-59
2023/09/05 00:14:37;;;;;;;2.80;2.30;;;;;;;19.10;95.70;100381.38;104261;1254;68042;-59
2023/09/05 00:17:04;;;;;;;2.70;2.30;;;;;;;19.08;95.61;100380.56;104300;1276;72363;-59
2023/09/05 00:19:32;;;;;;;4.10;2.40;;;;;;;19.06;95.67;100382.11;104290;1264;61435;-59
2023/09/05 00:22:00;;;;;;;2.50;2.30;;;;;;;19.06;95.06;100380.68;104383;1254;59701;-59
2023/09/05 00:24:36;;;;;;;3.10;2.80;;;;;;;19.04;95.81;100379.24;104208;1257;71808;-60
2023/09/05 00:27:09;;;;;;;3.50;2.80;;;;;;;18.99;96.13;100374.40;104275;1269;69625;-59
2023/09/05 00:29:38;;;;;;;2.60;2.40;;;;;;;18.94;96.38;100376.90;104272;1258;72450;-59
2023/09/05 00:32:09;;;;;;;3.60;2.80;;;;;;;18.90;96.70;100380.89;104207;1259;61506;-59
2023/09/05 00:34:37;;;;;;;2.50;2.20;;;;;;;18.84;97.41;100380.55;104306;1255;59618;-59
2023/09/05 00:37:06;;;;;;;3.30;2.50;;;;;;;18.81;97.77;100383.05;104302;1258;73287;-59
2023/09/05 00:39:37;;;;;;;5.00;2.90;;;;;;;18.78;98.06;100384.81;104292;1276;69144;-59
2023/09/05 00:42:08;;;;;;;5.20;3.20;;;;;;;18.73;97.84;100386.77;104248;1260;72482;-59
2023/09/05 00:44:36;;;;;;;2.40;2.20;;;;;;;18.66;98.72;100392.48;104252;1258;61767;-59
2023/09/05 00:47:04;;;;;;;2.60;2.40;;;;;;;18.64;99.49;100396.54;104326;1259;59809;-59
2023/09/05 00:49:39;;;;;;;3.00;2.70;;;;;;;18.59;99.61;100392.61;104319;1259;72933;-59
2023/09/05 00:52:08;;;;;;;3.30;2.30;;;;;;;18.54;99.91;100393.84;104300;1276;69022;-59
2023/09/05 00:54:36;;;;;;;3.00;2.70;;;;;;;18.48;99.94;100391.22;104270;1276;73335;-59
2023/09/05 00:57:03;;;;;;;;;;;;;;;18.44;100.00;100394.81;104286;1259;62265;-59
2023/09/05 00:59:31;;;;;;;2.90;2.60;;;;;;;18.38;100.00;100395.71;104292;1254;59711;-59
2023/09/05 01:01:59;;;;;;;2.60;2.40;;;;;;;18.34;100.00;100398.50;104198;1275;72799;-59
2023/09/05 01:04:26;;;;;;;4.20;2.80;;;;;;;18.31;100.00;100398.13;104301;1258;68069;-60
2023/09/05 01:07:01;;;;;;;;;;;;;;;18.27;100.00;100400.52;104270;1267;72518;-59
2023/09/05 01:09:42;;;;;;;5.00;2.70;;;;;;;18.20;100.00;100405.75;104298;1259;61445;-60
2023/09/05 01:12:10;;;;;;;2.60;2.40;;;;;;;18.14;100.00;100404.37;107160;1254;60057;-59
2023/09/05 01:14:39;;;;;;;4.50;2.40;;;;;;;18.11;100.00;100409.30;104406;1270;72119;-60
2023/09/05 01:17:07;;;;;;;4.20;2.90;;;;;;;18.09;100.00;100410.83;104391;1257;69941;-59
2023/09/05 01:19:38;;;;;;;3.10;2.70;;;;;;;18.09;100.00;100415.44;105063;1257;72451;-59
2023/09/05 01:22:13;;;;;;;4.50;2.60;;;;;;;18.07;100.00;100417.34;104361;1269;61499;-59
2023/09/05 01:24:42;;;;;;;2.60;2.40;;;;;;;18.06;100.00;100420.98;104533;1264;59792;-59
2023/09/05 01:27:10;;;;;;;3.90;2.40;;;;;;;18.04;100.00;100423.58;104372;1254;73627;-60
2023/09/05 01:29:40;;;;;;;3.40;2.70;;;;;;;18.04;100.00;100427.14;104398;1276;68021;-59
2023/09/05 01:32:11;;;;;;;2.50;2.30;;;;;;;18.00;100.00;100421.90;104265;1267;71572;-59
2023/09/05 01:34:40;;;;;;;4.20;2.60;;;;;;;17.97;100.00;100421.20;104541;1256;61412;-59
2023/09/05 01:37:14;;;;;;;4.20;2.70;;;;;;;17.92;100.00;100418.80;104546;1257;59921;-59
2023/09/05 01:39:42;;;;;;;3.00;2.50;;;;;;;17.86;100.00;100417.02;104313;1257;72928;-59
2023/09/05 01:42:10;;;;;;;3.30;2.60;;;;;;;17.83;100.00;100414.34;104299;1257;68341;-59
2023/09/05 01:44:38;;;;;;;5.50;2.60;;;;;;;17.81;100.00;100415.17;104268;1267;72914;-59
2023/09/05 01:47:06;;;;;;;2.90;2.50;;;;;;;17.80;100.00;100414.39;104241;1258;61592;-59
2023/09/05 01:49:34;;;;;;;;;;;;;;;17.76;100.00;100416.77;104411;1256;60055;-59
2023/09/05 01:52:02;;;;;;;5.30;2.20;;;;;;;17.72;100.00;100412.70;104421;1260;72897;-59
2023/09/05 01:54:30;;;;;;;;;;;;;;;17.72;100.00;100412.55;108446;1253;68655;-59
2023/09/05 01:57:00;;;;;;;2.80;2.60;;;;;;;17.71;100.00;100407.78;105864;1253;72652;-59
2023/09/05 01:59:27;;;;;;;4.40;2.60;;;;;;;17.69;100.00;100407.25;108167;1254;62353;-59
2023/09/05 02:01:55;;;;;;;7.80;2.50;;;;;;;17.65;100.00;100408.85;108281;1254;59925;-60
2023/09/05 02:04:25;;;;;;;3.10;2.90;;;;;;;17.63;100.00;100409.86;107681;1257;73516;-60
2023/09/05 02:06:53;;;;;;;3.00;2.80;;;;;;;17.61;100.00;100415.69;105258;1256;69054;-60
2023/09/05 02:09:20;;;;;;;2.90;2.40;;;;;;;17.60;100.00;100415.92;104562;1258;72358;-60
2023/09/05 02:11:48;;;;;;;3.80;2.40;;;;;;;17.57;100.00;100415.39;104273;1254;62794;-59
2023/09/05 02:14:16;;;;;;;2.50;2.30;;;;;;;17.57;100.00;100410.80;104323;1254;60133;-59
2023/09/05 02:16:43;;;;;;;3.30;2.50;;;;;;;17.61;100.00;100412.34;104367;1257;72717;-60
2023/09/05 02:19:12;;;;;;;2.80;2.30;;;;;;;17.57;100.00;100410.27;108203;1254;68208;-59
2023/09/05 02:21:40;;;;;;;4.20;2.40;;;;;;;17.52;100.00;100413.74;105000;1254;72462;-59
2023/09/05 02:24:08;;;;;;;2.80;2.60;;;;;;;17.49;100.00;100412.66;104353;1257;61459;-59
2023/09/05 02:26:37;;;;;;;;;;;;;;;17.47;100.00;100415.96;108454;1254;59756;-60
2023/09/05 02:29:05;;;;;;;3.10;2.70;;;;;;;17.45;100.00;100412.02;108301;1253;72876;-59
2023/09/05 02:31:32;;;;;;;3.30;2.70;;;;;;;17.42;100.00;100417.14;105286;1257;69769;-59
2023/09/05 02:34:00;;;;;;;5.50;2.50;;;;;;;17.42;100.00;100422.64;104190;1266;72407;-60
2023/09/05 02:36:30;;;;;;;2.80;2.40;;;;;;;17.43;100.00;100423.52;104509;1254;61408;-60
2023/09/05 02:38:59;;;;;;;3.70;2.90;;;;;;;17.45;100.00;100425.50;104234;1254;60491;-59
2023/09/05 02:41:26;;;;;;;3.30;3.00;;;;;;;17.45;100.00;100427.98;104245;1257;73931;-59
2023/09/05 02:43:54;;;;;;;2.90;2.60;;;;;;;17.42;100.00;100427.08;104285;1267;70928;-60
2023/09/05 02:46:22;;;;;;;2.50;2.20;;;;;;;17.40;100.00;100426.84;104278;1275;71674;-59
2023/09/05 02:48:49;;;;;;;3.30;2.40;;;;;;;17.38;100.00;100430.69;104281;1257;61369;-59
2023/09/05 02:51:19;;;;;;;3.00;2.80;;;;;;;17.35;100.00;100433.70;104292;1259;60580;-59
2023/09/05 02:53:47;;;;;;;3.50;2.70;;;;;;;17.32;100.00;100433.49;104257;1276;74042;-59
2023/09/05 02:56:16;;;;;;;;;;;;;;;17.27;100.00;100430.59;104291;1276;69043;-59
2023/09/05 02:58:44;;;;;;;3.50;3.00;;;;;;;17.23;100.00;100432.79;104315;1276;71165;-59
2023/09/05 03:01:12;;;;;;;;;;;;;;;17.18;100.00;100432.58;104284;1257;61516;-59
2023/09/05 03:03:42;;;;;;;2.80;2.30;;;;;;;17.12;100.00;100428.62;104287;1260;60499;-60
2023/09/05 03:06:11;;;;;;;3.40;2.60;;;;;;;17.08;100.00;100431.38;104293;1260;73640;-59
2023/09/05 03:08:39;;;;;;;4.20;2.60;;;;;;;17.05;100.00;100435.26;104297;1270;69039;-59
2023/09/05 03:11:07;;;;;;;5.60;2.70;;;;;;;17.04;100.00;100439.89;104239;1269;71293;-60
2023/09/05 03:13:34;;;;;;;5.60;2.30;;;;;;;17.03;100.00;100442.41;104268;1262;61773;-59
2023/09/05 03:16:03;;;;;;;4.80;2.40;;;;;;;17.01;100.00;100440.98;104298;1252;60531;-60
2023/09/05 03:18:32;;;;;;;3.00;2.80;;;;;;;17.02;100.00;100444.24;108104;1251;75595;-60
2023/09/05 03:21:00;;;;;;;5.90;2.70;;;;;;;17.04;100.00;100446.25;106112;1253;70019;-60
2023/09/05 03:23:27;;;;;;;2.60;2.40;;;;;;;17.04;100.00;100449.25;104432;1270;71416;-60
2023/09/05 03:25:56;;;;;;;2.70;2.40;;;;;;;17.07;100.00;100450.20;104454;1255;61402;-59
2023/09/05 03:28:24;;;;;;;3.20;2.70;;;;;;;17.07;100.00;100451.79;104335;1264;60524;-59
2023/09/05 03:30:52;;;;;;;3.90;2.60;;;;;;;17.06;100.00;100452.01;104418;1268;72981;-59
2023/09/05 03:33:20;;;;;;;3.00;2.70;;;;;;;17.03;100.00;100451.84;104557;1254;69579;-58
2023/09/05 03:35:48;;;;;;;3.20;2.70;;;;;;;17.01;100.00;100452.99;104282;1274;73307;-58
2023/09/05 03:38:16;;;;;;;2.90;2.60;;;;;;;17.01;100.00;100452.49;104300;1254;62363;-57
2023/09/05 03:40:43;;;;;;;3.70;2.90;;;;;;;17.00;100.00;100450.40;104282;1254;60659;-58
2023/09/05 03:43:11;;;;;;;3.50;2.80;;;;;;;17.01;100.00;100447.52;104284;1275;74542;-58
2023/09/05 03:45:39;;;;;;;2.90;2.50;;;;;;;17.03;100.00;100449.35;104320;1256;69110;-58
2023/09/05 03:48:09;;;;;;;3.00;2.80;;;;;;;17.04;100.00;100451.77;104332;1267;72748;-59
2023/09/05 03:50:37;;;;;;;4.00;2.50;;;;;;;17.04;100.00;100455.48;104370;1259;61563;-58
2023/09/05 03:53:07;;;;;;;3.40;2.90;;;;;;;17.05;100.00;100457.02;104307;1257;60437;-59
2023/09/05 03:55:34;;;;;;;4.60;2.70;;;;;;;17.05;100.00;100461.63;104257;1267;74359;-58
2023/09/05 03:58:02;;;;;;;3.00;2.40;;;;;;;17.09;100.00;100463.34;104307;1256;69547;-59
2023/09/05 04:00:34;;;;;;;3.00;2.70;;;;;;;17.12;100.00;100465.13;104333;1258;73363;-59
2023/09/05 04:03:02;;;;;;;2.80;2.50;;;;;;;17.15;100.00;100467.45;104325;1254;62360;-58
2023/09/05 04:05:32;;;;;;;3.10;2.60;;;;;;;17.19;100.00;100471.48;104347;1254;60523;-58
2023/09/05 04:08:00;;;;;;;4.20;2.70;;;;;;;17.19;100.00;100472.17;104318;1274;73921;-58
2023/09/05 04:10:28;;;;;;;2.90;2.70;;;;;;;17.21;100.00;100475.77;104303;1254;69182;-58
2023/09/05 04:12:56;;;;;;;4.70;2.70;;;;;;;17.27;100.00;100476.14;104379;1254;73343;-60
2023/09/05 04:15:23;;;;;;;;;;;;;;;17.29;100.00;100477.09;104318;1257;62409;-57
2023/09/05 04:17:51;;;;;;;3.10;2.80;;;;;;;17.30;100.00;100475.61;104242;1260;60552;-58
2023/09/05 04:20:19;;;;;;;3.20;2.60;;;;;;;17.32;100.00;100478.86;104254;1267;72972;-58
2023/09/05 04:22:47;;;;;;;;;;;;;;;17.34;100.00;100480.39;104323;1260;69330;-58
2023/09/05 04:25:14;;;;;;;;;;;;;;;17.36;100.00;100481.15;104472;1254;71369;-59
2023/09/05 04:27:42;;;;;;;;;;;;;;;17.37;100.00;100487.08;104278;1254;61941;-59
2023/09/05 04:30:10;;;;;;;2.70;2.40;;;;;;;17.43;100.00;100487.62;104396;1253;60565;-59
2023/09/05 04:32:42;;;;;;;2.70;2.50;;;;;;;17.51;100.00;100487.54;104271;1275;72831;-59
2023/09/05 04:35:12;;;;;;;3.10;2.70;;;;;;;17.56;100.00;100489.91;104293;1257;69123;-59
2023/09/05 04:37:40;;;;;;;3.70;2.80;;;;;;;17.63;100.00;100488.25;104323;1270;72371;-59
2023/09/05 04:40:08;;;;;;;3.90;3.40;;;;;;;17.69;100.00;100491.79;104300;1255;60461;-59
2023/09/05 04:42:35;;;;;;;4.50;2.70;;;;;;;17.74;100.00;100492.93;104431;1254;59390;-60
2023/09/05 04:45:06;;;;;;;3.40;3.10;;;;;;;17.80;100.00;100494.36;104434;1257;74076;-59
2023/09/05 04:47:34;;;;;;;4.80;3.30;;;;;;;17.87;100.00;100490.02;104712;1254;69719;-60
2023/09/05 04:50:02;;;;;;;3.90;2.90;;;;;;;17.95;100.00;100489.98;104294;1274;72319;-60
2023/09/05 04:52:30;;;;;;;4.90;3.40;;;;;;;18.02;100.00;100486.34;104224;1257;63290;-59
2023/09/05 04:54:59;;;;;;;3.70;2.60;;;;;;;18.09;100.00;100485.91;104273;1252;60498;-59
2023/09/05 04:57:27;;;;;;;4.20;2.90;;;;;;;18.14;100.00;100482.08;104305;1275;74481;-59
2023/09/05 04:59:59;;;;;;;;;;;;;;;18.21;100.00;100482.65;104283;1259;70004;-59
2023/09/05 05:02:27;;;;;;;4.30;2.90;;;;;;;18.30;100.00;100485.16;104452;1255;73412;-59
2023/09/05 05:04:55;;;;;;;4.40;2.40;;;;;;;18.35;100.00;100487.48;104298;1254;61399;-59
2023/09/05 05:07:23;;;;;;;3.60;2.80;;;;;;;18.42;100.00;100486.68;104300;1257;60658;-59
2023/09/05 05:09:51;;;;;;;4.20;2.90;;;;;;;18.49;100.00;100486.98;104250;1267;73609;-58
2023/09/05 05:12:18;;;;;;;;;;;;;;;18.55;100.00;100482.69;104264;1276;69146;-59
2023/09/05 05:14:46;;;;;;;7.20;3.80;;;;;;;18.64;100.00;100482.13;108414;1253;72910;-59
2023/09/05 05:17:13;;;;;;;3.60;2.90;;;;;;;18.73;100.00;100479.63;108413;1253;61423;-59
2023/09/05 05:19:41;;;;;;;4.50;2.80;;;;;;;18.85;100.00;100478.20;108328;1254;59682;-59
2023/09/05 05:22:11;;;;;;;3.40;2.80;;;;;;;18.93;100.00;100476.77;108462;1253;73608;-61
2023/09/05 05:24:38;;;;;;;7.60;3.20;;;;;;;19.03;100.00;100475.04;108581;1252;69420;-57
2023/09/05 05:27:06;;;;;;;3.50;2.80;;;;;;;19.15;100.00;100478.22;108488;1253;72263;-57
2023/09/05 05:29:33;;;;;;;;;;;;;;;19.23;100.00;100476.77;108298;1254;61403;-58
2023/09/05 05:32:01;;;;;;;6.60;3.70;;;;;;;19.32;100.00;100478.72;108355;1253;59907;-57
2023/09/05 05:34:29;;;;;;;;;;;;;;;19.42;100.00;100474.64;108322;1254;73633;-58
2023/09/05 05:39:50;;;;;;;4.20;3.30;;;;;;;19.65;100.00;100466.91;101547;1294;600883;-58
2023/09/05 05:42:18;;;;;;;6.50;2.50;;;;;;;19.75;100.00;100465.20;103872;1270;60567;-58
2023/09/05 05:44:46;;;;;;;6.30;2.50;;;;;;;19.88;100.00;100466.79;103837;1269;60707;-58
2023/09/05 05:47:14;;;;;;;3.40;2.50;;;;;;;19.99;100.00;100469.36;103866;1269;72057;-57
2023/09/05 05:49:41;;;;;;;5.50;2.70;;;;;;;20.10;100.00;100470.95;104034;1264;69045;-59
2023/09/05 05:52:10;;;;;;;4.70;2.60;;;;;;;20.21;100.00;100474.83;103977;1266;72386;-59
2023/09/05 05:54:38;;;;;;;4.90;2.70;;;;;;;20.31;100.00;100478.90;103662;1266;243527;-59
2023/09/05 05:57:06;;;;;;;3.40;2.70;;;;;;;20.42;99.74;100474.61;104076;1261;60063;-59
2023/09/05 05:59:34;;;;;;;4.80;2.50;;;;;;;20.53;99.52;100474.40;103836;1259;71820;-60
2023/09/05 06:02:03;;;;;;;3.60;2.80;;;;;;;20.62;97.10;100478.21;103883;1261;70153;-60
2023/09/05 06:04:31;;;;;;;3.00;2.40;;;;;;;20.71;96.35;100481.64;103950;1270;71262;-60
2023/09/05 06:06:59;;;;;;;;;;;;;;;20.77;96.85;100483.70;103980;1262;61360;-59
2023/09/05 06:09:27;;;;;;;4.00;2.20;;;;;;;20.86;93.24;100488.56;103945;1265;59647;-59
2023/09/05 06:11:55;;;;;;;4.40;2.40;;;;;;;20.94;94.30;100486.92;103901;1260;73513;-59
2023/09/05 06:14:23;;;;;;;3.80;2.30;;;;;;;21.05;90.43;100484.75;104118;1259;69412;-60
2023/09/05 06:16:50;;;;;;;4.00;2.30;;;;;;;21.15;88.43;100479.52;103942;1270;72318;-60
2023/09/05 06:19:18;;;;;;;3.80;2.70;;;;;;;21.26;87.71;100478.92;104022;1263;62416;-60
2023/09/05 06:21:46;;;;;;;2.40;2.00;;;;;;;21.37;86.52;100479.30;103865;1261;59758;-60
2023/09/05 06:24:14;;;;;;;4.80;2.80;;;;;;;21.49;83.66;100477.21;103845;1265;72764;-59
2023/09/05 06:26:45;;;;;;;10.50;2.70;;;;;;;21.62;80.28;100476.58;104427;1260;68178;-59
2023/09/05 06:29:13;;;;;;;3.50;1.90;;;;;;;21.74;77.46;100472.83;104277;1257;72358;-59
2023/09/05 06:31:40;;;;;;;3.90;2.20;;;;;;;21.86;77.66;100473.19;104227;1259;62008;-59
2023/09/05 06:34:08;;;;;;;2.80;2.00;;;;;;;21.96;75.36;100474.48;104204;1260;59671;-59
2023/09/05 06:36:36;;;;;;;2.10;1.90;;;;;;;22.09;73.24;100474.43;104343;1263;72787;-58
2023/09/05 06:39:07;;;;;;;2.40;1.90;;;;;;;22.21;73.18;100475.29;104226;1278;69211;-58
2023/09/05 06:41:35;;;;;;;5.70;2.30;;;;;;;22.29;73.14;100477.55;104186;1278;72588;-59
2023/09/05 06:44:03;;;;;;;4.80;2.10;;;;;;;22.38;70.90;100481.27;104176;1257;60143;-59
2023/09/05 10:29:38;;;;;;;3.00;1.90;;;;;;;27.71;33.71;100383.08;101748;1295;601539;-59
2023/09/05 10:32:06;;;;;;;3.20;2.10;;;;;;;28.15;33.19;100376.96;103778;1273;59791;-60
2023/09/05 10:34:57;;;;;;;3.10;2.10;;;;;;;28.21;32.81;100372.23;103707;1269;60556;-59
2023/09/05 10:37:34;;;;;;;5.90;2.50;;;;;;;28.27;32.61;100368.19;103741;1267;71788;-60
2023/09/05 10:40:07;;;;;;;4.30;2.40;;;;;;;28.29;32.88;100369.52;103969;1270;69584;-61
2023/09/05 10:42:40;;;;;;;2.70;2.40;;;;;;;28.34;32.52;100369.14;103475;1279;327592;-60
2023/09/05 10:45:28;;;;;;;2.50;2.30;;;;;;;28.33;33.08;100358.30;104309;1266;60186;-60
2023/09/05 10:47:59;;;;;;;4.80;2.80;;;;;;;28.39;33.05;100360.42;104369;1256;59710;-60
2023/09/05 10:50:28;;;;;;;4.20;2.30;;;;;;;28.45;33.37;100352.77;104443;1257;72884;-60
2023/09/05 10:53:11;;;;;;;4.50;2.30;;;;;;;28.45;32.40;100357.64;104139;1264;69195;-60
2023/09/05 10:55:44;;;;;;;3.10;2.00;;;;;;;28.49;32.76;100354.66;104443;1260;72312;-60
2023/09/05 10:58:43;;;;;;;3.80;2.30;;;;;;;28.51;33.19;100357.70;104211;1260;59307;-61
2023/09/05 11:01:31;;;;;;;2.80;2.50;;;;;;;28.50;32.58;100353.77;104383;1258;59797;-61
2023/09/05 11:04:07;;;;;;;2.40;2.20;;;;;;;28.51;33.22;100351.69;104385;1257;73688;-60
2023/09/05 11:06:36;;;;;;;3.20;1.90;;;;;;;28.56;32.72;100348.00;104405;1258;71447;-60
2023/09/05 11:09:05;;;;;;;3.60;2.50;;;;;;;28.58;32.80;100352.78;104278;1272;72665;-60
2023/09/05 11:11:37;;;;;;;3.70;2.20;;;;;;;28.61;32.31;100351.02;104443;1260;59927;-60
2023/09/05 11:14:08;;;;;;;2.40;2.20;;;;;;;28.62;32.40;100350.08;104647;1257;59758;-60
2023/09/05 11:16:49;;;;;;;3.00;2.20;;;;;;;28.60;32.89;100349.57;104666;1257;72883;-60
2023/09/05 11:19:41;;;;;;;3.90;2.40;;;;;;;28.64;32.76;100343.65;104666;1257;69809;-60
2023/09/05 11:22:21;;;;;;;2.00;1.90;;;;;;;28.70;31.84;100339.55;104331;1258;73183;-61
2023/09/05 11:24:53;;;;;;;3.70;1.90;;;;;;;28.75;31.69;100331.36;107842;1256;59752;-62
2023/09/05 11:27:24;;;;;;;2.60;2.10;;;;;;;28.81;31.89;100334.15;106798;1257;60063;-63
2023/09/05 11:29:55;;;;;;;2.40;2.20;;;;;;;28.81;31.72;100332.45;105797;1256;72927;-63
2023/09/05 11:32:35;;;;;;;2.20;2.00;;;;;;;28.83;31.66;100332.09;105316;1260;69581;-62
2023/09/05 11:35:04;;;;;;;2.60;2.40;;;;;;;28.85;31.44;100326.64;104381;1273;72500;-60
2023/09/05 11:37:32;;;;;;;2.70;2.50;;;;;;;28.85;31.51;100320.68;104608;1257;59761;-60
2023/09/05 11:40:11;;;;;;;2.70;2.50;;;;;;;28.86;31.62;100323.02;104447;1260;59781;-60
2023/09/05 11:42:39;;;;;;;2.60;2.30;;;;;;;28.94;31.99;100317.17;104092;1273;73475;-60
2023/09/05 11:45:17;;;;;;;2.50;2.30;;;;;;;28.98;31.53;100320.32;104034;1257;69419;-60
2023/09/05 11:47:45;;;;;;;4.10;2.50;;;;;;;29.03;31.52;100321.23;104238;1262;72349;-60
2023/09/05 11:50:14;;;;;;;2.60;2.40;;;;;;;29.05;31.15;100310.34;103988;1257;59758;-60
2023/09/05 11:52:43;;;;;;;6.90;2.80;;;;;;;29.03;30.80;100313.09;104177;1256;59955;-60
2023/09/05 11:55:11;;;;;;;2.60;2.40;;;;;;;29.04;30.82;100312.02;104148;1262;72864;-61
2023/09/05 11:57:40;;;;;;;;;;;;;;;29.07;30.94;100311.34;104155;1260;69614;-63
2023/09/05 12:00:12;;;;;;;3.00;2.70;;;;;;;29.11;31.31;100312.88;104286;1258;74302;-59
2023/09/05 12:02:40;;;;;;;4.60;2.70;;;;;;;29.07;30.72;100316.13;104433;1261;60774;-61
2023/09/05 12:05:08;;;;;;;;;;;;;;;29.02;31.24;100317.52;104503;1260;59705;-61
2023/09/05 12:07:36;;;;;;;3.10;2.80;;;;;;;29.03;31.27;100315.62;104484;1260;72839;-61
2023/09/05 12:10:05;;;;;;;4.00;2.40;;;;;;;29.04;31.32;100312.05;104222;1257;69483;-61
2023/09/05 12:12:33;;;;;;;2.50;2.30;;;;;;;29.09;31.35;100312.98;104278;1257;72553;-61
2023/09/05 12:15:00;;;;;;;;;;;;;;;29.19;31.31;100303.11;104325;1257;60036;-60
2023/09/05 12:17:28;;;;;;;6.20;2.50;;;;;;;29.24;30.93;100302.34;104252;1260;59708;-59
2023/09/05 12:19:56;;;;;;;;;;;;;;;29.24;30.79;100301.61;104518;1260;73424;-60
2023/09/05 12:22:28;;;;;;;2.90;2.60;;;;;;;29.27;30.39;100295.29;105104;1256;69512;-61
2023/09/05 12:25:16;;;;;;;6.90;2.50;;;;;;;29.23;30.03;100293.20;105737;1257;72374;-58
2023/09/05 12:27:48;;;;;;;2.70;2.50;;;;;;;29.24;30.26;100284.05;104561;1262;60775;-59
2023/09/05 12:30:30;;;;;;;3.50;2.70;;;;;;;29.23;30.66;100285.68;104513;1257;59848;-59
2023/09/05 12:33:02;;;;;;;2.70;2.50;;;;;;;29.26;31.01;100284.05;104345;1256;73789;-56
2023/09/05 12:35:31;;;;;;;2.40;2.20;;;;;;;29.34;30.50;100286.77;104446;1263;68886;-58
2023/09/05 12:38:01;;;;;;;3.00;2.60;;;;;;;29.38;30.57;100285.55;104329;1258;72450;-59
2023/09/05 12:40:32;;;;;;;5.90;2.80;;;;;;;29.40;30.71;100284.13;104647;1256;60088;-59
2023/09/05 12:43:04;;;;;;;2.70;2.50;;;;;;;29.47;30.58;100284.59;104269;1273;59381;-58
2023/09/05 12:45:32;;;;;;;3.90;2.40;;;;;;;29.53;30.06;100290.76;104074;1258;72031;-61
2023/09/05 12:48:00;;;;;;;2.30;2.10;;;;;;;29.60;29.82;100290.20;104211;1276;69680;-59
2023/09/05 12:50:36;;;;;;;4.80;3.00;;;;;;;29.64;29.88;100281.80;104245;1261;71733;-60
2023/09/05 12:53:10;;;;;;;4.60;2.70;;;;;;;29.68;29.74;100286.02;104156;1266;59963;-61
2023/09/05 12:55:38;;;;;;;3.00;2.50;;;;;;;29.72;29.94;100291.53;104132;1263;59557;-61
2023/09/05 12:58:12;;;;;;;;;;;;;;;29.74;29.95;100292.20;104013;1279;72874;-60
2023/09/05 13:00:40;;;;;;;5.80;2.40;;;;;;;29.78;29.86;100288.48;104200;1278;69345;-60
2023/09/05 13:03:10;;;;;;;3.80;2.40;;;;;;;29.81;29.63;100286.92;104249;1279;72887;-58
2023/09/05 13:05:40;;;;;;;2.50;2.30;;;;;;;29.89;29.99;100286.08;104227;1257;60449;-58
2023/09/05 13:08:09;;;;;;;2.60;2.40;;;;;;;29.96;29.38;100282.73;104233;1257;59732;-59
2023/09/05 13:10:38;;;;;;;3.50;2.70;;;;;;;30.02;29.23;100281.67;104021;1257;73348;-58
2023/09/05 13:13:07;;;;;;;2.50;2.30;;;;;;;30.09;28.94;100278.86;104017;1264;69210;-58
2023/09/05 13:15:35;;;;;;;4.50;2.20;;;;;;;30.16;29.43;100280.56;104092;1263;72642;-59
2023/09/05 13:18:06;;;;;;;6.30;2.40;;;;;;;30.21;29.45;100272.76;104071;1260;60761;-59
2023/09/05 13:20:34;;;;;;;3.30;2.40;;;;;;;30.24;29.30;100272.41;104139;1264;59853;-59
2023/09/05 13:23:02;;;;;;;2.50;2.30;;;;;;;30.32;30.00;100268.23;104255;1279;73155;-59
2023/09/05 13:25:32;;;;;;;3.50;2.40;;;;;;;30.46;29.44;100266.56;107281;1256;69803;-60
2023/09/05 13:28:04;;;;;;;2.60;2.40;;;;;;;30.51;29.16;100259.03;106211;1257;72650;-60
2023/09/05 13:30:34;;;;;;;3.00;2.20;;;;;;;30.58;29.25;100259.52;107846;1257;60001;-60
2023/09/05 13:33:03;;;;;;;2.60;2.30;;;;;;;30.72;29.16;100256.75;105912;1257;59978;-60
2023/09/05 13:35:35;;;;;;;7.80;2.60;;;;;;;30.81;28.97;100256.33;104281;1263;73259;-60
2023/09/05 13:38:03;;;;;;;4.60;2.20;;;;;;;30.85;28.53;100247.09;104865;1257;69545;-60
2023/09/05 13:40:31;;;;;;;4.80;2.40;;;;;;;30.90;28.46;100246.21;104203;1260;72480;-59
2023/09/05 13:42:59;;;;;;;4.70;2.60;;;;;;;30.97;28.01;100241.17;104314;1257;60430;-59
2023/09/05 13:45:30;;;;;;;2.80;2.50;;;;;;;31.05;26.96;100246.98;104379;1257;60834;-60
2023/09/05 13:47:59;;;;;;;3.70;2.30;;;;;;;31.10;27.33;100245.67;104400;1262;73170;-60
2023/09/05 13:50:27;;;;;;;5.60;2.40;;;;;;;31.20;27.69;100247.71;104154;1276;70144;-61
2023/09/05 13:52:55;;;;;;;2.40;2.20;;;;;;;31.41;27.48;100247.15;104547;1267;72410;-60
2023/09/05 13:55:23;;;;;;;3.50;2.50;;;;;;;31.59;27.19;100245.30;104251;1263;60892;-59
2023/09/05 13:57:51;;;;;;;2.80;2.50;;;;;;;31.69;27.16;100242.61;104207;1263;59756;-60
2023/09/05 14:00:19;;;;;;;2.80;2.40;;;;;;;31.72;27.09;100240.86;104105;1260;72773;-60
2023/09/05 14:02:47;;;;;;;2.60;2.30;;;;;;;31.77;26.96;100232.40;104225;1263;69883;-59
2023/09/05 14:05:16;;;;;;;2.50;2.30;;;;;;;31.81;27.19;100238.09;104161;1257;72897;-60
2023/09/05 14:07:44;;;;;;;2.50;2.30;;;;;;;31.95;27.21;100237.27;104227;1260;60356;-59
2023/09/05 14:10:12;;;;;;;2.90;2.70;;;;;;;32.10;27.37;100231.82;104174;1257;59935;-60
2023/09/05 14:12:40;;;;;;;2.70;2.50;;;;;;;32.21;26.92;100223.73;104392;1258;73736;-60
2023/09/05 14:15:09;;;;;;;3.70;2.00;;;;;;;32.28;27.01;100223.80;104494;1257;69934;-59
2023/09/05 14:17:37;;;;;;;2.80;2.50;;;;;;;32.34;26.76;100222.38;104401;1257;72419;-60
2023/09/05 14:20:06;;;;;;;2.40;2.20;;;;;;;32.30;26.60;100214.25;104613;1257;60157;-61
2023/09/05 14:22:34;;;;;;;2.90;2.50;;;;;;;32.37;26.38;100222.98;104441;1256;60296;-60
2023/09/05 14:25:01;;;;;;;4.40;2.40;;;;;;;32.35;26.27;100224.55;106950;1260;72840;-61
2023/09/05 14:27:29;;;;;;;5.40;2.60;;;;;;;32.39;26.46;100225.47;104102;1263;69357;-61
2023/09/05 14:29:57;;;;;;;2.50;2.30;;;;;;;32.35;26.52;100227.09;104083;1257;73201;-61
2023/09/05 14:32:27;;;;;;;2.60;2.40;;;;;;;32.38;26.63;100226.51;103957;1263;60131;-59
2023/09/05 14:34:55;;;;;;;5.40;2.40;;;;;;;32.45;26.89;100222.25;104296;1256;60556;-60
2023/09/05 14:37:23;;;;;;;4.50;2.60;;;;;;;32.50;26.70;100218.70;104227;1258;72948;-59
2023/09/05 14:39:52;;;;;;;2.60;2.40;;;;;;;32.47;26.20;100217.46;104307;1273;70106;-59
2023/09/05 14:42:21;;;;;;;2.60;2.40;;;;;;;32.54;26.34;100218.37;104297;1264;72780;-60
2023/09/05 14:44:51;;;;;;;2.60;2.10;;;;;;;32.56;25.88;100219.02;104433;1251;60585;-60
2023/09/05 14:47:19;;;;;;;5.00;2.20;;;;;;;32.60;26.08;100216.55;104263;1251;60613;-60
2023/09/05 14:49:50;;;;;;;2.90;2.40;;;;;;;32.54;25.99;100217.67;104243;1257;73815;-61
2023/09/05 14:52:19;;;;;;;3.90;2.30;;;;;;;32.40;26.52;100216.85;104272;1257;68581;-61
2023/09/05 14:54:46;;;;;;;2.40;2.20;;;;;;;32.35;26.53;100215.49;104557;1256;72187;-60
2023/09/05 14:57:18;;;;;;;2.80;2.40;;;;;;;32.25;26.40;100212.55;104444;1254;60623;-61
2023/09/05 14:59:46;;;;;;;2.60;2.40;;;;;;;32.11;27.02;100208.73;104534;1256;59954;-58
2023/09/05 15:02:13;;;;;;;4.60;2.20;;;;;;;32.02;27.29;100210.16;104775;1251;73592;-60
2023/09/05 15:04:41;;;;;;;;;;;;;;;31.89;26.80;100212.71;104408;1269;69603;-60
2023/09/05 15:07:09;;;;;;;3.40;2.30;;;;;;;31.72;27.07;100215.27;104747;1257;72686;-60
2023/09/05 15:09:36;;;;;;;2.30;2.20;;;;;;;31.51;27.09;100213.06;104310;1257;60704;-60
2023/09/05 15:12:06;;;;;;;3.60;2.30;;;;;;;31.30;27.53;100213.38;104404;1257;60613;-60
2023/09/05 15:14:37;;;;;;;2.60;2.40;;;;;;;31.08;28.07;100210.60;104396;1258;73716;-60
2023/09/05 15:17:05;;;;;;;3.50;2.60;;;;;;;30.85;28.38;100210.43;104429;1257;69534;-60